Lancaster, OH (43130)

10:28 AM EDT op 02 oktober 2014 (GMT -0400)
Fairfield County Weather | Change Station
CLOSE
Current Station
Persoonlijk weerstation
Location: Lancaster, OH
Geometrische hoogte: 958 ft
Nabije weerstations

Hoogte 958 ft 39.75 °N, 82.57 °W | Updated 4 seconds ago

Merendeels bewolkt
Merendeels bewolkt
64.2 °F
Voelt als 64.2 °F
N
0.0
Wind Variabel Wind van zuid
Gusts 1.0 mijl/u

Vandaag
Hoog -- | Laag -- °F
--% Kans op neerslag
Gisteren
Hoog -- | Laag -- °F
Precip. -- inches
7:27 AM 7:11 PM
Eerste kwartier, 59% visible
Druk 30.05 inches
Zicht 4.0 mijlen
Wolken Geheel bewolkt 500 ft
Dauwpunt 56 °F
Vochtigheid 76%
Neerslag 0.00 inches
Dikte sneeuw Niet beschikbaar.
UV 1 van de 12
Pollen 2.90 van de 12
Ozon Goed
PM2.5 Matig
Flu Activity Niet beschikbaar.
METAR KLHQ 011414Z AUTO 00000KT 4SM BR OVC005 14/12 A3005 RMK AO2 CIG 004V009 T01390122

More Conditions Fewer Conditions

Druk 30.05 inches
Zicht 4.0 mijlen
Wolken Geheel bewolkt 500 ft
Dauwpunt 56 °F
Vochtigheid 76%
Neerslag 0.00 inches
Dikte sneeuw Niet beschikbaar.
UV 1 van de 12
Pollen 2.90 van de 12
Ozon Goed
PM2.5 Matig
Flu Activity Niet beschikbaar.
METAR KLHQ 011414Z AUTO 00000KT 4SM BR OVC005 14/12 A3005 RMK AO2 CIG 004V009 T01390122

More Conditions Fewer Conditions

10-Day Weather Forecast

Almanac

Astronomie

Oct. 02, 2014 Opkomst Ondergang
Werkelijke tijd 7:27 AM EDT 7:11 PM EDT
Burgerlijke schemering 7:00 AM EDT 7:38 PM EDT
Nautische schemering 6:29 AM EDT 8:09 PM EDT
Astronomische schemering 5:57 AM EDT 8:40 PM EDT
Maan 3:15 PM EDT 12:44 AM EDT
Golflengte van het zichtbare licht 12h 37m
Daglengte
11h 43m
Tomorrow will be 2m 35s shorter.
Eerste kwartier, 59% of the Moon is Illuminated
Vandaag
Eerste kwartier
oktober 8
Volle maan
oktober 15
Laatste kwartier
oktober 23
Nieuw
oktober 30
Eerste kwartier

Extremen vandaag

State Highs State Lows

Community

WunderPhotos

Upload Photos

1,758,250 foto’s ge-upload!

WunderBlogs® & News

By Dr. Jeff Masters
Director of Meteorology, Weather Underground
By Kari Strenfel
Meteorologist, Weather Underground
By Christopher C. Burt
Weather Historian, Weather Underground
October 2, 2014
October 2, 2014
October 2, 2014

Nearby

Luchtkwaliteit

  Luchtkwaliteit LK-index Verontreinigende stof
Gisteren Goed
PM2.5
Gisteren Goed
OZONE
Actueel Matig
PM2.5
Actueel Goed
OZONE
donderdag Matig
PM2.5
donderdag Matig
OZONE
vrijdag Goed
PM2.5
vrijdag Goed
OZONE
zaterdag Goed
OZONE
zaterdag Goed
PM2.5
zondag Goed
OZONE
zondag Goed
PM2.5
maandag Goed
OZONE
maandag Goed
PM2.5

Dikte sneeuw

Station Depth Geometrische hoogte
Er is geen verse sneeuw gerapporteerd.

Aardbevingen

Stad Distance Mag. Time & Date
No recent earthquake activity has been reported nearby.
Minimum magnitude displayed is 2.5.

Watertemperatuur langs de kust

Plaats Temperatuur
Geen meldingen van stations

Nabije weerstations